sensor_id;sensor_type;location;lat;lon;timestamp;P1;durP1;ratioP1;P2;durP2;ratioP2
15258;SDS011;34462;51.368;12.364;2024-03-23T00:54:14;21.80;;;17.13;;
15258;SDS011;34462;51.368;12.364;2024-03-23T00:56:40;21.63;;;16.23;;
15258;SDS011;34462;51.368;12.364;2024-03-23T00:59:07;18.33;;;14.13;;
15258;SDS011;34462;51.368;12.364;2024-03-23T01:01:35;19.30;;;14.83;;
15258;SDS011;34462;51.368;12.364;2024-03-23T01:04:02;20.70;;;15.53;;
15258;SDS011;34462;51.368;12.364;2024-03-23T01:06:29;18.10;;;14.33;;
15258;SDS011;34462;51.368;12.364;2024-03-23T01:08:56;18.83;;;14.33;;
15258;SDS011;34462;51.368;12.364;2024-03-23T01:11:22;18.57;;;14.23;;
15258;SDS011;34462;51.368;12.364;2024-03-23T01:13:49;16.83;;;13.57;;
15258;SDS011;34462;51.368;12.364;2024-03-23T01:16:16;16.40;;;12.87;;
15258;SDS011;34462;51.368;12.364;2024-03-23T01:18:44;16.37;;;12.53;;
15258;SDS011;34462;51.368;12.364;2024-03-23T01:21:11;15.87;;;11.87;;
15258;SDS011;34462;51.368;12.364;2024-03-23T01:23:38;13.70;;;11.03;;
15258;SDS011;34462;51.368;12.364;2024-03-23T01:26:04;13.67;;;10.57;;
15258;SDS011;34462;51.368;12.364;2024-03-23T01:28:31;11.93;;;9.90;;
15258;SDS011;34462;51.368;12.364;2024-03-23T01:30:58;12.23;;;9.30;;
15258;SDS011;34462;51.368;12.364;2024-03-23T01:33:25;10.40;;;8.53;;
15258;SDS011;34462;51.368;12.364;2024-03-23T01:35:52;12.23;;;8.17;;
15258;SDS011;34462;51.368;12.364;2024-03-23T01:38:20;9.70;;;7.30;;
15258;SDS011;34462;51.368;12.364;2024-03-23T01:40:46;9.90;;;6.90;;
15258;SDS011;34462;51.368;12.364;2024-03-23T01:43:13;8.90;;;6.67;;
15258;SDS011;34462;51.368;12.364;2024-03-23T01:45:40;9.87;;;7.33;;
15258;SDS011;34462;51.368;12.364;2024-03-23T01:48:07;10.83;;;6.93;;
15258;SDS011;34462;51.368;12.364;2024-03-23T01:50:34;11.07;;;7.70;;
15258;SDS011;34462;51.368;12.364;2024-03-23T01:53:03;11.47;;;8.03;;
15258;SDS011;34462;51.368;12.364;2024-03-23T01:55:31;11.60;;;8.00;;
15258;SDS011;34462;51.368;12.364;2024-03-23T01:57:58;10.50;;;7.83;;
15258;SDS011;34462;51.368;12.364;2024-03-23T02:00:25;11.70;;;8.57;;
15258;SDS011;34462;51.368;12.364;2024-03-23T02:02:53;13.03;;;8.30;;
15258;SDS011;34462;51.368;12.364;2024-03-23T02:05:20;15.50;;;9.13;;
15258;SDS011;34462;51.368;12.364;2024-03-23T02:07:47;12.13;;;7.90;;
15258;SDS011;34462;51.368;12.364;2024-03-23T02:10:15;12.07;;;7.93;;
15258;SDS011;34462;51.368;12.364;2024-03-23T02:12:42;9.77;;;7.23;;
15258;SDS011;34462;51.368;12.364;2024-03-23T02:15:08;11.93;;;7.20;;
15258;SDS011;34462;51.368;12.364;2024-03-23T02:17:36;11.83;;;7.10;;
15258;SDS011;34462;51.368;12.364;2024-03-23T02:20:02;9.87;;;7.17;;
15258;SDS011;34462;51.368;12.364;2024-03-23T02:22:35;8.27;;;5.23;;
15258;SDS011;34462;51.368;12.364;2024-03-23T02:25:05;8.07;;;5.67;;
15258;SDS011;34462;51.368;12.364;2024-03-23T02:27:33;8.13;;;5.50;;
15258;SDS011;34462;51.368;12.364;2024-03-23T02:30:01;7.90;;;5.80;;
15258;SDS011;34462;51.368;12.364;2024-03-23T02:32:28;10.20;;;5.80;;
15258;SDS011;34462;51.368;12.364;2024-03-23T02:34:54;7.97;;;5.23;;
15258;SDS011;34462;51.368;12.364;2024-03-23T02:37:22;10.53;;;5.50;;
15258;SDS011;34462;51.368;12.364;2024-03-23T02:39:48;9.53;;;5.50;;
15258;SDS011;34462;51.368;12.364;2024-03-23T02:42:17;8.73;;;5.37;;
15258;SDS011;34462;51.368;12.364;2024-03-23T02:44:43;9.23;;;5.50;;
15258;SDS011;34462;51.368;12.364;2024-03-23T02:47:11;7.43;;;5.13;;
15258;SDS011;34462;51.368;12.364;2024-03-23T02:49:37;8.60;;;5.20;;
15258;SDS011;34462;51.368;12.364;2024-03-23T02:52:04;6.53;;;5.20;;
15258;SDS011;34462;51.368;12.364;2024-03-23T02:54:31;8.60;;;5.27;;
15258;SDS011;34462;51.368;12.364;2024-03-23T02:56:58;8.53;;;5.17;;
15258;SDS011;34462;51.368;12.364;2024-03-23T02:59:26;8.13;;;4.93;;
15258;SDS011;34462;51.368;12.364;2024-03-23T03:01:53;8.53;;;4.80;;
15258;SDS011;34462;51.368;12.364;2024-03-23T03:04:20;6.57;;;4.83;;
15258;SDS011;34462;51.368;12.364;2024-03-23T03:06:47;6.37;;;4.23;;
15258;SDS011;34462;51.368;12.364;2024-03-23T03:09:14;7.57;;;5.03;;
15258;SDS011;34462;51.368;12.364;2024-03-23T03:11:41;8.33;;;4.40;;
15258;SDS011;34462;51.368;12.364;2024-03-23T03:14:07;7.63;;;5.03;;
15258;SDS011;34462;51.368;12.364;2024-03-23T03:16:36;7.07;;;4.30;;
15258;SDS011;34462;51.368;12.364;2024-03-23T03:19:02;6.20;;;4.07;;
15258;SDS011;34462;51.368;12.364;2024-03-23T03:21:29;7.73;;;4.53;;
15258;SDS011;34462;51.368;12.364;2024-03-23T03:23:56;5.40;;;4.13;;
15258;SDS011;34462;51.368;12.364;2024-03-23T03:26:23;8.20;;;4.53;;
15258;SDS011;34462;51.368;12.364;2024-03-23T03:28:49;7.40;;;4.27;;
15258;SDS011;34462;51.368;12.364;2024-03-23T03:31:17;8.13;;;4.70;;
15258;SDS011;34462;51.368;12.364;2024-03-23T03:33:45;8.57;;;4.70;;
15258;SDS011;34462;51.368;12.364;2024-03-23T03:36:12;6.53;;;4.17;;
15258;SDS011;34462;51.368;12.364;2024-03-23T03:38:39;6.43;;;3.70;;
15258;SDS011;34462;51.368;12.364;2024-03-23T03:41:06;5.07;;;3.80;;
15258;SDS011;34462;51.368;12.364;2024-03-23T03:43:32;5.37;;;3.70;;
15258;SDS011;34462;51.368;12.364;2024-03-23T03:46:00;5.53;;;3.50;;
15258;SDS011;34462;51.368;12.364;2024-03-23T03:48:28;4.70;;;3.30;;
15258;SDS011;34462;51.368;12.364;2024-03-23T03:50:57;6.63;;;3.37;;
15258;SDS011;34462;51.368;12.364;2024-03-23T03:53:23;5.47;;;3.30;;
15258;SDS011;34462;51.368;12.364;2024-03-23T03:55:51;5.30;;;3.40;;
15258;SDS011;34462;51.368;12.364;2024-03-23T03:58:17;5.37;;;2.90;;
15258;SDS011;34462;51.368;12.364;2024-03-23T04:00:45;4.87;;;3.00;;
15258;SDS011;34462;51.368;12.364;2024-03-23T04:03:11;4.50;;;2.80;;
15258;SDS011;34462;51.368;12.364;2024-03-23T04:05:38;5.03;;;3.07;;
15258;SDS011;34462;51.368;12.364;2024-03-23T04:08:06;4.27;;;2.97;;
15258;SDS011;34462;51.368;12.364;2024-03-23T04:10:34;4.40;;;2.90;;
15258;SDS011;34462;51.368;12.364;2024-03-23T04:13:00;6.07;;;2.93;;
15258;SDS011;34462;51.368;12.364;2024-03-23T04:15:29;7.47;;;3.30;;
15258;SDS011;34462;51.368;12.364;2024-03-23T04:17:56;7.77;;;3.40;;
15258;SDS011;34462;51.368;12.364;2024-03-23T04:20:23;4.73;;;3.10;;
15258;SDS011;34462;51.368;12.364;2024-03-23T04:22:49;5.40;;;3.23;;
15258;SDS011;34462;51.368;12.364;2024-03-23T04:25:18;6.70;;;3.57;;
15258;SDS011;34462;51.368;12.364;2024-03-23T04:27:44;5.37;;;3.30;;
15258;SDS011;34462;51.368;12.364;2024-03-23T04:30:12;5.33;;;3.10;;
15258;SDS011;34462;51.368;12.364;2024-03-23T04:32:39;6.90;;;3.60;;
15258;SDS011;34462;51.368;12.364;2024-03-23T04:35:07;5.50;;;3.13;;
15258;SDS011;34462;51.368;12.364;2024-03-23T04:37:34;6.07;;;3.20;;
15258;SDS011;34462;51.368;12.364;2024-03-23T04:40:02;7.30;;;3.20;;
15258;SDS011;34462;51.368;12.364;2024-03-23T04:42:34;5.30;;;3.40;;
15258;SDS011;34462;51.368;12.364;2024-03-23T04:45:01;7.30;;;3.40;;
15258;SDS011;34462;51.368;12.364;2024-03-23T04:47:29;5.17;;;3.07;;
15258;SDS011;34462;51.368;12.364;2024-03-23T04:49:56;4.43;;;2.80;;
15258;SDS011;34462;51.368;12.364;2024-03-23T04:52:23;5.47;;;3.33;;
15258;SDS011;34462;51.368;12.364;2024-03-23T04:54:50;5.60;;;3.10;;
15258;SDS011;34462;51.368;12.364;2024-03-23T04:57:17;7.80;;;3.27;;
15258;SDS011;34462;51.368;12.364;2024-03-23T04:59:45;6.90;;;3.50;;
15258;SDS011;34462;51.368;12.364;2024-03-23T05:02:12;5.67;;;3.47;;
15258;SDS011;34462;51.368;12.364;2024-03-23T05:04:40;6.47;;;3.40;;
15258;SDS011;34462;51.368;12.364;2024-03-23T05:07:06;5.03;;;3.53;;
15258;SDS011;34462;51.368;12.364;2024-03-23T05:09:34;5.43;;;3.10;;
15258;SDS011;34462;51.368;12.364;2024-03-23T05:12:00;4.73;;;3.30;;
15258;SDS011;34462;51.368;12.364;2024-03-23T05:14:27;5.23;;;3.53;;
15258;SDS011;34462;51.368;12.364;2024-03-23T05:16:56;5.00;;;3.50;;
15258;SDS011;34462;51.368;12.364;2024-03-23T05:19:23;6.27;;;3.50;;
15258;SDS011;34462;51.368;12.364;2024-03-23T05:21:50;7.10;;;3.70;;
15258;SDS011;34462;51.368;12.364;2024-03-23T05:24:18;6.23;;;3.67;;
15258;SDS011;34462;51.368;12.364;2024-03-23T05:26:45;7.47;;;4.00;;
15258;SDS011;34462;51.368;12.364;2024-03-23T05:29:11;5.30;;;3.50;;
15258;SDS011;34462;51.368;12.364;2024-03-23T05:31:39;6.00;;;4.10;;
15258;SDS011;34462;51.368;12.364;2024-03-23T05:34:08;4.77;;;3.83;;
15258;SDS011;34462;51.368;12.364;2024-03-23T05:36:35;7.67;;;4.27;;
15258;SDS011;34462;51.368;12.364;2024-03-23T05:39:02;6.70;;;4.10;;
15258;SDS011;34462;51.368;12.364;2024-03-23T05:41:30;8.13;;;4.53;;
15258;SDS011;34462;51.368;12.364;2024-03-23T05:43:56;8.53;;;4.03;;
15258;SDS011;34462;51.368;12.364;2024-03-23T05:46:23;7.23;;;3.87;;
15258;SDS011;34462;51.368;12.364;2024-03-23T05:48:50;5.70;;;3.53;;
15258;SDS011;34462;51.368;12.364;2024-03-23T05:51:19;6.10;;;3.93;;
15258;SDS011;34462;51.368;12.364;2024-03-23T05:53:45;8.20;;;4.83;;
15258;SDS011;34462;51.368;12.364;2024-03-23T05:56:12;6.33;;;4.50;;
15258;SDS011;34462;51.368;12.364;2024-03-23T05:58:39;8.53;;;4.20;;
15258;SDS011;34462;51.368;12.364;2024-03-23T06:01:06;7.17;;;4.47;;
15258;SDS011;34462;51.368;12.364;2024-03-23T06:03:33;5.43;;;4.10;;
15258;SDS011;34462;51.368;12.364;2024-03-23T06:06:00;7.47;;;4.53;;
15258;SDS011;34462;51.368;12.364;2024-03-23T06:08:28;7.23;;;4.50;;
15258;SDS011;34462;51.368;12.364;2024-03-23T06:10:55;9.07;;;4.37;;
15258;SDS011;34462;51.368;12.364;2024-03-23T06:13:21;8.33;;;4.77;;
15258;SDS011;34462;51.368;12.364;2024-03-23T06:15:55;5.87;;;4.17;;
15258;SDS011;34462;51.368;12.364;2024-03-23T06:18:21;6.13;;;4.73;;
15258;SDS011;34462;51.368;12.364;2024-03-23T06:20:48;9.73;;;4.70;;
15258;SDS011;34462;51.368;12.364;2024-03-23T06:23:15;8.60;;;5.00;;
15258;SDS011;34462;51.368;12.364;2024-03-23T06:25:43;10.47;;;5.33;;
15258;SDS011;34462;51.368;12.364;2024-03-23T06:28:10;7.47;;;5.50;;
15258;SDS011;34462;51.368;12.364;2024-03-23T06:30:37;7.13;;;4.70;;
15258;SDS011;34462;51.368;12.364;2024-03-23T06:33:04;8.23;;;4.97;;
15258;SDS011;34462;51.368;12.364;2024-03-23T06:35:31;11.20;;;5.30;;
15258;SDS011;34462;51.368;12.364;2024-03-23T06:37:58;6.37;;;4.70;;
15258;SDS011;34462;51.368;12.364;2024-03-23T06:40:25;9.17;;;4.87;;
15258;SDS011;34462;51.368;12.364;2024-03-23T06:42:53;7.30;;;4.70;;
15258;SDS011;34462;51.368;12.364;2024-03-23T06:45:20;9.37;;;5.13;;
15258;SDS011;34462;51.368;12.364;2024-03-23T06:47:48;9.17;;;5.23;;
15258;SDS011;34462;51.368;12.364;2024-03-23T06:50:17;8.03;;;5.00;;
15258;SDS011;34462;51.368;12.364;2024-03-23T06:52:43;7.83;;;5.00;;
15258;SDS011;34462;51.368;12.364;2024-03-23T06:55:11;7.37;;;4.80;;
15258;SDS011;34462;51.368;12.364;2024-03-23T06:57:37;10.00;;;5.60;;
15258;SDS011;34462;51.368;12.364;2024-03-23T07:00:06;8.67;;;4.63;;
15258;SDS011;34462;51.368;12.364;2024-03-23T07:02:35;8.97;;;4.73;;
15258;SDS011;34462;51.368;12.364;2024-03-23T07:05:02;9.17;;;4.60;;
15258;SDS011;34462;51.368;12.364;2024-03-23T07:07:30;5.73;;;4.87;;
15258;SDS011;34462;51.368;12.364;2024-03-23T07:09:57;7.90;;;4.40;;
15258;SDS011;34462;51.368;12.364;2024-03-23T07:12:23;8.50;;;5.43;;
15258;SDS011;34462;51.368;12.364;2024-03-23T07:14:51;7.13;;;4.93;;
15258;SDS011;34462;51.368;12.364;2024-03-23T07:17:18;10.53;;;5.33;;
15258;SDS011;34462;51.368;12.364;2024-03-23T07:19:46;9.37;;;5.13;;
15258;SDS011;34462;51.368;12.364;2024-03-23T07:22:12;10.13;;;4.70;;
15258;SDS011;34462;51.368;12.364;2024-03-23T07:24:40;7.40;;;4.40;;
15258;SDS011;34462;51.368;12.364;2024-03-23T07:27:06;7.37;;;4.60;;
15258;SDS011;34462;51.368;12.364;2024-03-23T07:29:35;8.30;;;4.50;;
15258;SDS011;34462;51.368;12.364;2024-03-23T07:32:01;8.33;;;3.90;;
15258;SDS011;34462;51.368;12.364;2024-03-23T07:34:30;9.73;;;4.30;;
15258;SDS011;34462;51.368;12.364;2024-03-23T07:36:56;11.87;;;3.60;;
15258;SDS011;34462;51.368;12.364;2024-03-23T07:39:24;5.63;;;2.50;;
15258;SDS011;34462;51.368;12.364;2024-03-23T07:41:53;6.00;;;2.97;;
15258;SDS011;34462;51.368;12.364;2024-03-23T07:44:20;4.90;;;2.97;;
15258;SDS011;34462;51.368;12.364;2024-03-23T07:46:46;5.17;;;3.47;;
15258;SDS011;34462;51.368;12.364;2024-03-23T07:49:13;8.83;;;6.40;;
15258;SDS011;34462;51.368;12.364;2024-03-23T07:51:41;4.90;;;4.43;;
15258;SDS011;34462;51.368;12.364;2024-03-23T07:54:10;4.10;;;2.23;;
15258;SDS011;34462;51.368;12.364;2024-03-23T07:56:36;2.60;;;1.30;;
15258;SDS011;34462;51.368;12.364;2024-03-23T07:59:03;4.03;;;1.60;;
15258;SDS011;34462;51.368;12.364;2024-03-23T08:01:30;3.10;;;1.60;;
15258;SDS011;34462;51.368;12.364;2024-03-23T08:03:57;3.60;;;1.40;;
15258;SDS011;34462;51.368;12.364;2024-03-23T08:06:23;3.83;;;1.70;;
15258;SDS011;34462;51.368;12.364;2024-03-23T08:08:55;4.33;;;1.80;;
15258;SDS011;34462;51.368;12.364;2024-03-23T08:11:24;3.00;;;1.77;;
15258;SDS011;34462;51.368;12.364;2024-03-23T08:13:52;4.50;;;1.73;;
15258;SDS011;34462;51.368;12.364;2024-03-23T08:16:19;3.47;;;2.13;;
15258;SDS011;34462;51.368;12.364;2024-03-23T08:18:46;3.07;;;1.70;;
15258;SDS011;34462;51.368;12.364;2024-03-23T08:21:13;2.63;;;1.53;;
15258;SDS011;34462;51.368;12.364;2024-03-23T08:23:40;1.23;;;1.10;;
15258;SDS011;34462;51.368;12.364;2024-03-23T08:26:09;2.17;;;1.20;;
15258;SDS011;34462;51.368;12.364;2024-03-23T08:28:38;3.00;;;1.13;;
15258;SDS011;34462;51.368;12.364;2024-03-23T08:31:06;2.87;;;1.20;;
15258;SDS011;34462;51.368;12.364;2024-03-23T08:33:35;2.27;;;1.00;;
15258;SDS011;34462;51.368;12.364;2024-03-23T08:36:04;4.27;;;1.27;;
15258;SDS011;34462;51.368;12.364;2024-03-23T08:38:34;2.10;;;1.20;;
15258;SDS011;34462;51.368;12.364;2024-03-23T08:41:01;2.03;;;1.07;;
15258;SDS011;34462;51.368;12.364;2024-03-23T08:43:33;3.50;;;0.90;;
15258;SDS011;34462;51.368;12.364;2024-03-23T08:46:05;1.77;;;0.90;;
15258;SDS011;34462;51.368;12.364;2024-03-23T08:48:34;2.00;;;1.13;;
15258;SDS011;34462;51.368;12.364;2024-03-23T08:51:01;1.77;;;0.93;;
15258;SDS011;34462;51.368;12.364;2024-03-23T08:53:29;2.53;;;1.07;;
15258;SDS011;34462;51.368;12.364;2024-03-23T08:55:56;1.40;;;0.93;;
15258;SDS011;34462;51.368;12.364;2024-03-23T08:58:24;1.30;;;1.10;;
15258;SDS011;34462;51.368;12.364;2024-03-23T09:00:55;3.53;;;1.23;;
15258;SDS011;34462;51.368;12.364;2024-03-23T09:03:29;1.67;;;1.30;;
15258;SDS011;34462;51.368;12.364;2024-03-23T09:05:56;2.23;;;1.47;;
15258;SDS011;34462;51.368;12.364;2024-03-23T09:08:24;3.70;;;1.90;;
15258;SDS011;34462;51.368;12.364;2024-03-23T09:10:51;3.00;;;1.60;;
15258;SDS011;34462;51.368;12.364;2024-03-23T09:13:19;3.33;;;1.43;;
15258;SDS011;34462;51.368;12.364;2024-03-23T09:15:46;2.33;;;1.63;;
15258;SDS011;34462;51.368;12.364;2024-03-23T09:18:16;2.77;;;1.00;;
15258;SDS011;34462;51.368;12.364;2024-03-23T09:20:43;3.00;;;1.40;;
15258;SDS011;34462;51.368;12.364;2024-03-23T09:23:10;1.80;;;1.10;;
15258;SDS011;34462;51.368;12.364;2024-03-23T09:25:37;3.17;;;1.30;;
15258;SDS011;34462;51.368;12.364;2024-03-23T09:28:05;3.00;;;1.40;;
15258;SDS011;34462;51.368;12.364;2024-03-23T09:30:34;1.50;;;1.40;;
15258;SDS011;34462;51.368;12.364;2024-03-23T09:33:07;2.40;;;1.10;;
15258;SDS011;34462;51.368;12.364;2024-03-23T09:35:37;1.93;;;1.30;;
15258;SDS011;34462;51.368;12.364;2024-03-23T09:38:05;1.00;;;0.90;;
15258;SDS011;34462;51.368;12.364;2024-03-23T09:40:32;1.97;;;1.03;;
15258;SDS011;34462;51.368;12.364;2024-03-23T09:43:00;2.93;;;1.27;;
15258;SDS011;34462;51.368;12.364;2024-03-23T09:45:27;1.73;;;1.37;;
15258;SDS011;34462;51.368;12.364;2024-03-23T09:47:55;2.30;;;1.77;;
15258;SDS011;34462;51.368;12.364;2024-03-23T09:50:22;2.93;;;1.83;;
15258;SDS011;34462;51.368;12.364;2024-03-23T09:52:51;2.20;;;1.90;;
15258;SDS011;34462;51.368;12.364;2024-03-23T09:55:17;3.70;;;1.60;;
15258;SDS011;34462;51.368;12.364;2024-03-23T09:57:45;2.10;;;1.40;;
15258;SDS011;34462;51.368;12.364;2024-03-23T10:00:11;2.40;;;1.70;;
15258;SDS011;34462;51.368;12.364;2024-03-23T10:02:40;2.70;;;1.60;;
15258;SDS011;34462;51.368;12.364;2024-03-23T10:05:17;2.27;;;1.40;;
15258;SDS011;34462;51.368;12.364;2024-03-23T10:07:48;2.07;;;1.30;;
15258;SDS011;34462;51.368;12.364;2024-03-23T10:10:16;1.10;;;0.90;;
15258;SDS011;34462;51.368;12.364;2024-03-23T10:12:45;1.00;;;0.90;;
15258;SDS011;34462;51.368;12.364;2024-03-23T10:15:17;2.50;;;1.13;;
15258;SDS011;34462;51.368;12.364;2024-03-23T10:17:46;0.90;;;0.90;;
15258;SDS011;34462;51.368;12.364;2024-03-23T10:20:13;1.77;;;1.30;;
15258;SDS011;34462;51.368;12.364;2024-03-23T10:22:47;1.10;;;1.00;;
15258;SDS011;34462;51.368;12.364;2024-03-23T10:25:16;1.23;;;1.13;;
15258;SDS011;34462;51.368;12.364;2024-03-23T10:27:44;0.93;;;0.90;;
15258;SDS011;34462;51.368;12.364;2024-03-23T10:30:24;1.10;;;0.90;;
15258;SDS011;34462;51.368;12.364;2024-03-23T10:32:53;1.40;;;1.20;;
15258;SDS011;34462;51.368;12.364;2024-03-23T10:35:32;1.17;;;1.07;;
15258;SDS011;34462;51.368;12.364;2024-03-23T10:37:59;1.57;;;1.30;;
15258;SDS011;34462;51.368;12.364;2024-03-23T10:40:28;1.50;;;1.40;;
15258;SDS011;34462;51.368;12.364;2024-03-23T10:42:57;2.03;;;1.80;;
15258;SDS011;34462;51.368;12.364;2024-03-23T10:45:24;2.97;;;2.30;;
15258;SDS011;34462;51.368;12.364;2024-03-23T10:47:51;3.67;;;2.90;;
15258;SDS011;34462;51.368;12.364;2024-03-23T10:50:18;3.63;;;3.33;;
15258;SDS011;34462;51.368;12.364;2024-03-23T10:52:46;3.40;;;3.10;;
15258;SDS011;34462;51.368;12.364;2024-03-23T10:55:14;4.20;;;3.20;;
15258;SDS011;34462;51.368;12.364;2024-03-23T10:57:49;3.47;;;3.17;;
15258;SDS011;34462;51.368;12.364;2024-03-23T11:00:19;3.87;;;3.57;;
15258;SDS011;34462;51.368;12.364;2024-03-23T11:02:48;4.17;;;3.57;;
15258;SDS011;34462;51.368;12.364;2024-03-23T11:05:28;4.00;;;3.70;;
15258;SDS011;34462;51.368;12.364;2024-03-23T11:07:56;3.63;;;3.33;;
15258;SDS011;34462;51.368;12.364;2024-03-23T11:10:26;3.03;;;2.73;;
15258;SDS011;34462;51.368;12.364;2024-03-23T11:12:56;2.83;;;2.63;;
15258;SDS011;34462;51.368;12.364;2024-03-23T11:15:23;2.73;;;2.27;;
15258;SDS011;34462;51.368;12.364;2024-03-23T11:18:02;2.53;;;2.33;;
15258;SDS011;34462;51.368;12.364;2024-03-23T11:20:33;3.53;;;2.90;;
15258;SDS011;34462;51.368;12.364;2024-03-23T11:23:01;5.20;;;3.27;;
15258;SDS011;34462;51.368;12.364;2024-03-23T11:25:28;3.33;;;2.83;;
15258;SDS011;34462;51.368;12.364;2024-03-23T11:27:57;4.00;;;2.80;;
15258;SDS011;34462;51.368;12.364;2024-03-23T11:30:36;3.53;;;2.27;;
15258;SDS011;34462;51.368;12.364;2024-03-23T11:33:04;2.93;;;1.90;;
15258;SDS011;34462;51.368;12.364;2024-03-23T11:35:31;2.00;;;1.40;;
15258;SDS011;34462;51.368;12.364;2024-03-23T11:38:03;2.43;;;1.70;;
15258;SDS011;34462;51.368;12.364;2024-03-23T11:40:31;3.73;;;1.67;;
15258;SDS011;34462;51.368;12.364;2024-03-23T11:43:01;3.10;;;1.60;;
15258;SDS011;34462;51.368;12.364;2024-03-23T11:45:33;4.27;;;1.50;;
15258;SDS011;34462;51.368;12.364;2024-03-23T11:48:03;4.10;;;1.80;;
15258;SDS011;34462;51.368;12.364;2024-03-23T11:50:31;5.13;;;1.43;;
15258;SDS011;34462;51.368;12.364;2024-03-23T11:53:13;4.90;;;1.60;;
15258;SDS011;34462;51.368;12.364;2024-03-23T11:55:42;3.03;;;1.40;;
15258;SDS011;34462;51.368;12.364;2024-03-23T11:58:15;4.87;;;1.37;;
15258;SDS011;34462;51.368;12.364;2024-03-23T12:00:49;2.47;;;1.23;;
15258;SDS011;34462;51.368;12.364;2024-03-23T12:03:18;3.53;;;1.60;;
15258;SDS011;34462;51.368;12.364;2024-03-23T12:05:48;3.13;;;1.37;;
15258;SDS011;34462;51.368;12.364;2024-03-23T12:08:19;3.27;;;1.13;;
15258;SDS011;34462;51.368;12.364;2024-03-23T12:10:48;2.73;;;1.30;;
15258;SDS011;34462;51.368;12.364;2024-03-23T12:13:20;5.07;;;1.60;;
15258;SDS011;34462;51.368;12.364;2024-03-23T12:15:50;2.00;;;1.10;;
15258;SDS011;34462;51.368;12.364;2024-03-23T12:18:18;2.30;;;1.10;;
15258;SDS011;34462;51.368;12.364;2024-03-23T12:20:50;3.17;;;1.23;;
15258;SDS011;34462;51.368;12.364;2024-03-23T12:23:17;3.40;;;1.40;;
15258;SDS011;34462;51.368;12.364;2024-03-23T12:25:48;1.27;;;1.00;;
15258;SDS011;34462;51.368;12.364;2024-03-23T12:28:15;2.63;;;1.20;;
15258;SDS011;34462;51.368;12.364;2024-03-23T12:30:43;2.70;;;1.43;;
15258;SDS011;34462;51.368;12.364;2024-03-23T12:33:11;2.83;;;1.40;;
15258;SDS011;34462;51.368;12.364;2024-03-23T12:35:37;2.83;;;1.20;;
15258;SDS011;34462;51.368;12.364;2024-03-23T12:38:04;3.57;;;1.47;;
15258;SDS011;34462;51.368;12.364;2024-03-23T12:40:31;2.13;;;1.50;;
15258;SDS011;34462;51.368;12.364;2024-03-23T12:42:58;5.20;;;1.43;;
15258;SDS011;34462;51.368;12.364;2024-03-23T12:45:25;3.03;;;1.50;;
15258;SDS011;34462;51.368;12.364;2024-03-23T12:47:53;2.80;;;1.50;;
15258;SDS011;34462;51.368;12.364;2024-03-23T12:50:20;3.07;;;1.97;;
15258;SDS011;34462;51.368;12.364;2024-03-23T12:52:47;2.97;;;1.67;;
15258;SDS011;34462;51.368;12.364;2024-03-23T12:55:14;6.07;;;2.30;;
15258;SDS011;34462;51.368;12.364;2024-03-23T12:57:42;3.10;;;1.63;;
15258;SDS011;34462;51.368;12.364;2024-03-23T13:00:11;5.50;;;1.80;;
15258;SDS011;34462;51.368;12.364;2024-03-23T13:02:41;1.93;;;1.63;;
15258;SDS011;34462;51.368;12.364;2024-03-23T13:05:09;2.57;;;1.70;;
15258;SDS011;34462;51.368;12.364;2024-03-23T13:07:36;5.63;;;2.00;;
15258;SDS011;34462;51.368;12.364;2024-03-23T13:10:06;5.03;;;2.20;;
15258;SDS011;34462;51.368;12.364;2024-03-23T13:12:35;3.30;;;2.20;;
15258;SDS011;34462;51.368;12.364;2024-03-23T13:15:02;5.20;;;2.67;;
15258;SDS011;34462;51.368;12.364;2024-03-23T13:17:30;5.57;;;2.50;;
15258;SDS011;34462;51.368;12.364;2024-03-23T13:19:56;3.37;;;2.40;;
15258;SDS011;34462;51.368;12.364;2024-03-23T13:22:24;4.00;;;2.80;;
15258;SDS011;34462;51.368;12.364;2024-03-23T13:24:51;4.87;;;2.67;;
15258;SDS011;34462;51.368;12.364;2024-03-23T13:27:18;7.50;;;3.13;;
15258;SDS011;34462;51.368;12.364;2024-03-23T13:29:45;4.77;;;2.80;;
15258;SDS011;34462;51.368;12.364;2024-03-23T13:32:12;4.73;;;2.87;;
15258;SDS011;34462;51.368;12.364;2024-03-23T13:34:41;6.13;;;2.63;;
15258;SDS011;34462;51.368;12.364;2024-03-23T13:37:11;5.90;;;2.67;;
15258;SDS011;34462;51.368;12.364;2024-03-23T13:39:39;6.33;;;3.60;;
15258;SDS011;34462;51.368;12.364;2024-03-23T13:42:07;7.17;;;2.80;;
15258;SDS011;34462;51.368;12.364;2024-03-23T13:44:34;5.27;;;3.20;;
15258;SDS011;34462;51.368;12.364;2024-03-23T13:47:01;4.30;;;2.53;;
15258;SDS011;34462;51.368;12.364;2024-03-23T13:49:30;5.93;;;3.10;;
15258;SDS011;34462;51.368;12.364;2024-03-23T13:51:58;6.33;;;3.00;;
15258;SDS011;34462;51.368;12.364;2024-03-23T13:54:25;6.10;;;3.10;;
15258;SDS011;34462;51.368;12.364;2024-03-23T13:56:54;6.73;;;3.63;;
15258;SDS011;34462;51.368;12.364;2024-03-23T13:59:22;6.17;;;3.60;;
15258;SDS011;34462;51.368;12.364;2024-03-23T14:01:50;5.40;;;3.20;;
15258;SDS011;34462;51.368;12.364;2024-03-23T14:04:17;7.37;;;3.60;;
15258;SDS011;34462;51.368;12.364;2024-03-23T14:06:45;7.23;;;3.60;;
15258;SDS011;34462;51.368;12.364;2024-03-23T14:09:12;3.93;;;3.43;;
15258;SDS011;34462;51.368;12.364;2024-03-23T14:11:39;3.93;;;3.47;;
15258;SDS011;34462;51.368;12.364;2024-03-23T14:14:08;5.23;;;3.60;;
15258;SDS011;34462;51.368;12.364;2024-03-23T14:16:35;6.50;;;3.73;;
15258;SDS011;34462;51.368;12.364;2024-03-23T14:19:01;5.23;;;3.20;;
15258;SDS011;34462;51.368;12.364;2024-03-23T14:21:30;4.83;;;3.80;;
15258;SDS011;34462;51.368;12.364;2024-03-23T14:23:56;6.17;;;4.17;;
15258;SDS011;34462;51.368;12.364;2024-03-23T14:26:23;4.53;;;3.70;;
15258;SDS011;34462;51.368;12.364;2024-03-23T14:28:50;5.57;;;4.00;;
15258;SDS011;34462;51.368;12.364;2024-03-23T14:31:19;5.80;;;3.57;;
15258;SDS011;34462;51.368;12.364;2024-03-23T14:33:45;3.93;;;2.47;;
15258;SDS011;34462;51.368;12.364;2024-03-23T14:36:14;2.80;;;2.23;;
15258;SDS011;34462;51.368;12.364;2024-03-23T14:38:41;3.77;;;2.07;;
15258;SDS011;34462;51.368;12.364;2024-03-23T14:41:13;4.63;;;3.00;;
15258;SDS011;34462;51.368;12.364;2024-03-23T14:43:39;4.60;;;2.50;;
15258;SDS011;34462;51.368;12.364;2024-03-23T14:46:09;3.77;;;2.70;;
15258;SDS011;34462;51.368;12.364;2024-03-23T14:48:39;3.60;;;2.53;;
15258;SDS011;34462;51.368;12.364;2024-03-23T14:51:08;3.57;;;3.13;;
15258;SDS011;34462;51.368;12.364;2024-03-23T14:53:35;4.17;;;2.47;;
15258;SDS011;34462;51.368;12.364;2024-03-23T14:56:05;3.53;;;2.80;;
15258;SDS011;34462;51.368;12.364;2024-03-23T14:58:33;6.23;;;3.10;;
15258;SDS011;34462;51.368;12.364;2024-03-23T15:01:01;4.23;;;2.87;;
15258;SDS011;34462;51.368;12.364;2024-03-23T15:03:27;4.43;;;3.50;;
15258;SDS011;34462;51.368;12.364;2024-03-23T15:05:56;6.13;;;3.20;;
15258;SDS011;34462;51.368;12.364;2024-03-23T15:08:25;3.80;;;2.90;;
15258;SDS011;34462;51.368;12.364;2024-03-23T15:10:53;5.90;;;3.10;;
15258;SDS011;34462;51.368;12.364;2024-03-23T15:13:19;3.87;;;2.57;;
15258;SDS011;34462;51.368;12.364;2024-03-23T15:15:48;4.00;;;2.50;;
15258;SDS011;34462;51.368;12.364;2024-03-23T15:18:16;2.77;;;2.57;;
15258;SDS011;34462;51.368;12.364;2024-03-23T15:20:54;2.10;;;1.90;;
15258;SDS011;34462;51.368;12.364;2024-03-23T15:23:22;2.67;;;2.23;;
15258;SDS011;34462;51.368;12.364;2024-03-23T15:25:56;3.80;;;2.87;;
15258;SDS011;34462;51.368;12.364;2024-03-23T15:28:23;2.80;;;2.30;;
15258;SDS011;34462;51.368;12.364;2024-03-23T15:30:52;3.17;;;2.40;;